createdAt,value
2023-03-24T00:01:53.796Z,48.96
2023-03-24T00:04:21.696Z,47.73
2023-03-24T00:06:52.538Z,48.97
2023-03-24T00:09:19.888Z,47.58
2023-03-24T00:11:47.113Z,47.60
2023-03-24T00:14:14.199Z,48.44
2023-03-24T00:16:43.092Z,49.74
2023-03-24T00:19:15.125Z,49.07
2023-03-24T00:21:43.416Z,46.59
2023-03-24T00:24:12.940Z,47.43
2023-03-24T00:26:41.563Z,49.22
2023-03-24T00:29:11.444Z,47.91
2023-03-24T00:31:40.380Z,46.03
2023-03-24T00:34:08.901Z,47.22
2023-03-24T00:36:37.177Z,46.75
2023-03-24T00:39:06.550Z,48.54
2023-03-24T00:41:33.943Z,49.40
2023-03-24T00:44:03.685Z,47.88
2023-03-24T00:46:31.059Z,47.88
2023-03-24T00:49:06.081Z,46.22
2023-03-24T00:51:39.738Z,46.07
2023-03-24T00:54:09.300Z,46.61
2023-03-24T00:56:40.864Z,45.38
2023-03-24T00:59:10.434Z,47.40
2023-03-24T01:01:39.751Z,52.15
2023-03-24T01:04:08.306Z,53.31
2023-03-24T01:06:38.660Z,49.30
2023-03-24T01:09:07.072Z,48.65
2023-03-24T01:11:38.706Z,49.42
2023-03-24T01:14:06.164Z,48.48
2023-03-24T01:16:33.143Z,48.51
2023-03-24T01:19:00.640Z,50.25
2023-03-24T01:21:27.921Z,49.73
2023-03-24T01:23:55.056Z,47.77
2023-03-24T01:26:22.234Z,48.24
2023-03-24T01:28:49.103Z,47.09
2023-03-24T01:31:16.212Z,48.51
2023-03-24T01:33:43.487Z,47.78
2023-03-24T01:36:11.139Z,45.51
2023-03-24T01:38:38.528Z,47.46
2023-03-24T01:41:06.658Z,46.85
2023-03-24T01:43:36.212Z,47.18
2023-03-24T01:46:14.367Z,47.16
2023-03-24T01:48:47.125Z,45.92
2023-03-24T01:51:28.184Z,45.53
2023-03-24T01:54:03.479Z,43.62
2023-03-24T01:56:35.295Z,43.14
2023-03-24T01:59:10.774Z,49.73
2023-03-24T02:01:46.058Z,52.25
2023-03-24T02:04:39.222Z,47.48
2023-03-24T02:07:18.583Z,53.51
2023-03-24T02:09:46.244Z,51.74
2023-03-24T02:12:13.704Z,47.87
2023-03-24T02:14:42.265Z,46.75
2023-03-24T02:17:46.590Z,47.36
2023-03-24T02:21:02.176Z,52.55
2023-03-24T02:23:32.086Z,47.61
2023-03-24T02:26:19.481Z,52.80
2023-03-24T02:29:04.448Z,51.91
2023-03-24T02:31:56.869Z,46.96
2023-03-24T02:34:58.436Z,48.81
2023-03-24T02:37:46.955Z,49.52
2023-03-24T02:40:40.720Z,45.70
2023-03-24T02:43:37.822Z,45.01
2023-03-24T02:46:27.958Z,46.68
2023-03-24T02:49:09.761Z,45.79
2023-03-24T02:52:04.237Z,46.21
2023-03-24T02:54:44.495Z,46.14
2023-03-24T02:57:24.008Z,47.03
2023-03-24T03:00:22.408Z,46.57
2023-03-24T03:03:11.998Z,45.64
2023-03-24T03:05:49.786Z,45.58
2023-03-24T03:08:21.182Z,43.71
2023-03-24T03:10:50.410Z,45.83
2023-03-24T03:13:39.843Z,45.71
2023-03-24T03:16:16.319Z,46.02
2023-03-24T03:18:55.064Z,45.49
2023-03-24T03:21:25.128Z,46.90
2023-03-24T03:23:57.307Z,48.03
2023-03-24T03:26:29.016Z,51.36
2023-03-24T03:29:00.042Z,50.43
2023-03-24T03:31:34.511Z,48.76
2023-03-24T03:34:11.319Z,48.22
2023-03-24T03:36:59.901Z,46.40
2023-03-24T03:39:48.450Z,52.37
2023-03-24T03:42:16.165Z,52.18
2023-03-24T03:44:44.136Z,48.59
2023-03-24T03:47:11.541Z,51.60
2023-03-24T03:49:43.776Z,49.64
2023-03-24T03:52:10.864Z,51.42
2023-03-24T03:54:41.812Z,54.58
2023-03-24T03:57:10.840Z,53.04
2023-03-24T04:00:15.949Z,55.71
2023-03-24T04:03:02.356Z,51.85
2023-03-24T04:05:48.197Z,49.69
2023-03-24T04:08:17.501Z,47.06
2023-03-24T04:11:08.248Z,48.51
2023-03-24T04:14:23.828Z,49.28
2023-03-24T04:17:41.621Z,53.06
2023-03-24T04:20:14.869Z,52.88
2023-03-24T04:22:54.222Z,55.28
2023-03-24T04:25:58.912Z,55.30
2023-03-24T04:28:58.495Z,52.73
2023-03-24T04:31:29.656Z,49.65
2023-03-24T04:34:04.266Z,47.24
2023-03-24T04:36:54.497Z,47.80
2023-03-24T04:39:39.111Z,46.27
2023-03-24T04:42:23.992Z,47.81
2023-03-24T04:44:51.692Z,46.16
2023-03-24T04:47:57.013Z,45.88
2023-03-24T04:50:39.329Z,45.79
2023-03-24T04:53:11.366Z,47.13
2023-03-24T04:55:51.009Z,46.54
2023-03-24T04:58:38.133Z,46.03
2023-03-24T05:01:06.088Z,46.21
2023-03-24T05:03:38.233Z,46.29
2023-03-24T05:06:08.500Z,46.77
2023-03-24T05:08:35.431Z,47.04
2023-03-24T05:11:02.519Z,44.63
2023-03-24T05:13:31.475Z,46.45
2023-03-24T05:16:01.491Z,46.28
2023-03-24T05:18:47.360Z,47.26
2023-03-24T05:21:14.474Z,45.11
2023-03-24T05:23:41.556Z,47.41
2023-03-24T05:26:08.505Z,51.27
2023-03-24T05:28:46.285Z,50.49
2023-03-24T05:31:13.427Z,45.55
2023-03-24T05:33:55.704Z,48.54
2023-03-24T05:36:23.764Z,47.62
2023-03-24T05:38:54.988Z,47.21
2023-03-24T05:41:25.006Z,46.92
2023-03-24T05:43:51.720Z,47.77
2023-03-24T05:46:19.173Z,47.15
2023-03-24T05:48:47.691Z,47.64
2023-03-24T05:51:16.556Z,49.79
2023-03-24T05:53:44.433Z,49.79
2023-03-24T05:56:32.671Z,51.49
2023-03-24T05:59:12.035Z,47.16
2023-03-24T06:01:59.461Z,49.86
2023-03-24T06:04:46.001Z,52.34
2023-03-24T06:07:16.712Z,52.63
2023-03-24T06:09:51.141Z,48.92
2023-03-24T06:12:19.004Z,49.17
2023-03-24T06:14:56.161Z,47.82
2023-03-24T06:17:24.883Z,51.01
2023-03-24T06:20:02.789Z,46.12
2023-03-24T06:22:44.721Z,48.72
2023-03-24T06:25:16.910Z,47.93
2023-03-24T06:27:53.774Z,51.79
2023-03-24T06:30:23.772Z,46.67
2023-03-24T06:32:51.305Z,50.39
2023-03-24T06:35:19.673Z,54.00
2023-03-24T06:38:08.597Z,53.57
2023-03-24T06:40:37.262Z,51.28
2023-03-24T06:43:05.435Z,49.39
2023-03-24T06:45:35.603Z,46.46
2023-03-24T06:48:02.994Z,49.15
2023-03-24T06:50:33.378Z,47.64
2023-03-24T06:53:04.519Z,44.11
2023-03-24T06:55:33.292Z,46.85
2023-03-24T06:58:00.454Z,51.12
2023-03-24T07:00:48.193Z,47.10
2023-03-24T07:03:26.736Z,50.86
2023-03-24T07:06:12.236Z,45.16
2023-03-24T07:08:40.308Z,47.58
2023-03-24T07:11:09.940Z,51.49
2023-03-24T07:13:39.264Z,49.35
2023-03-24T07:16:06.537Z,50.00
2023-03-24T07:18:35.052Z,46.39
2023-03-24T07:21:05.266Z,47.29
2023-03-24T07:23:34.107Z,49.08
2023-03-24T07:26:10.039Z,50.29
2023-03-24T07:28:49.469Z,47.06
2023-03-24T07:31:38.187Z,50.06
2023-03-24T07:34:09.177Z,50.37
2023-03-24T07:36:38.476Z,44.32
2023-03-24T07:39:09.648Z,48.77
2023-03-24T07:41:37.421Z,50.27
2023-03-24T07:44:11.977Z,47.66
2023-03-24T07:46:49.834Z,45.44
2023-03-24T07:49:19.908Z,46.58
2023-03-24T07:52:08.027Z,44.11
2023-03-24T07:54:43.944Z,47.48
2023-03-24T07:57:19.377Z,51.17
2023-03-24T07:59:46.808Z,48.74
2023-03-24T08:02:20.626Z,53.62
2023-03-24T08:04:54.137Z,51.68
2023-03-24T08:07:44.783Z,49.66
2023-03-24T08:10:16.022Z,50.79
2023-03-24T08:12:42.763Z,50.53
2023-03-24T08:15:10.155Z,51.48
2023-03-24T08:17:37.329Z,49.95
2023-03-24T08:20:08.498Z,48.26
2023-03-24T08:22:36.970Z,48.42
2023-03-24T08:25:04.195Z,47.54
2023-03-24T08:27:31.415Z,47.00
2023-03-24T08:29:58.165Z,49.47
2023-03-24T08:32:25.163Z,48.00
2023-03-24T08:34:51.895Z,47.81
2023-03-24T08:37:18.767Z,51.61
2023-03-24T08:39:46.326Z,52.13
2023-03-24T08:42:13.070Z,48.98
2023-03-24T08:44:39.901Z,48.13
2023-03-24T08:47:06.783Z,48.21
2023-03-24T08:49:33.674Z,48.12
2023-03-24T08:52:00.450Z,45.67
2023-03-24T08:54:27.859Z,46.44
2023-03-24T08:56:54.648Z,47.26
2023-03-24T08:59:21.403Z,45.55
2023-03-24T09:01:48.402Z,45.15
2023-03-24T09:04:15.623Z,44.15
2023-03-24T09:06:42.769Z,40.67
2023-03-24T09:09:09.512Z,41.75
2023-03-24T09:11:38.483Z,41.38
2023-03-24T09:14:05.664Z,43.37
2023-03-24T09:16:33.138Z,40.40
2023-03-24T09:19:00.088Z,39.54
2023-03-24T09:21:27.538Z,39.80
2023-03-24T09:23:54.275Z,40.11
2023-03-24T09:26:23.047Z,40.36
2023-03-24T09:28:50.008Z,41.62
2023-03-24T09:31:17.768Z,39.30
2023-03-24T09:33:44.585Z,40.53
2023-03-24T09:36:11.996Z,41.69
2023-03-24T09:38:38.867Z,40.15
2023-03-24T09:41:18.767Z,41.75
2023-03-24T09:43:57.144Z,40.46
2023-03-24T09:46:32.179Z,39.34
2023-03-24T09:48:59.096Z,42.37
2023-03-24T09:51:33.064Z,42.65
2023-03-24T09:54:22.400Z,43.40
2023-03-24T09:56:51.690Z,45.03
2023-03-24T09:59:35.502Z,46.59
2023-03-24T10:02:12.484Z,45.01
2023-03-24T10:04:39.503Z,45.58
2023-03-24T10:07:33.118Z,47.71
2023-03-24T10:10:01.347Z,47.01
2023-03-24T10:12:40.538Z,46.89
2023-03-24T10:15:37.161Z,49.35
2023-03-24T10:18:39.253Z,44.35
2023-03-24T10:21:21.616Z,52.35
2023-03-24T10:24:19.138Z,52.52
2023-03-24T10:27:21.570Z,50.94
2023-03-24T10:29:52.572Z,49.64
2023-03-24T10:32:24.224Z,50.94
2023-03-24T10:35:09.671Z,50.49
2023-03-24T10:37:37.377Z,52.33
2023-03-24T10:40:19.261Z,51.16
2023-03-24T10:42:49.845Z,57.91
2023-03-24T10:45:36.519Z,53.28
2023-03-24T10:48:04.497Z,56.54
2023-03-24T10:50:41.538Z,55.57
2023-03-24T10:53:16.574Z,52.89
2023-03-24T10:55:44.079Z,53.01
2023-03-24T10:58:25.827Z,49.52
2023-03-24T11:00:53.520Z,47.20
2023-03-24T11:03:29.986Z,48.46
2023-03-24T11:06:05.484Z,49.67
2023-03-24T11:08:34.486Z,58.10
2023-03-24T11:11:01.960Z,56.16
2023-03-24T11:13:34.893Z,56.89
2023-03-24T11:16:08.407Z,59.57
2023-03-24T11:18:35.765Z,56.99
2023-03-24T11:21:06.086Z,58.59
2023-03-24T11:23:41.126Z,58.04
2023-03-24T11:26:09.712Z,54.21
2023-03-24T11:28:58.519Z,55.30
2023-03-24T11:31:30.630Z,56.73
2023-03-24T11:34:10.923Z,58.16
2023-03-24T11:36:46.829Z,56.22
2023-03-24T11:39:14.681Z,59.57
2023-03-24T11:41:50.451Z,60.53
2023-03-24T11:44:19.324Z,60.85
2023-03-24T11:46:55.794Z,59.47
2023-03-24T11:49:27.604Z,54.29
2023-03-24T11:51:55.571Z,59.94
2023-03-24T11:54:29.981Z,54.59
2023-03-24T11:57:04.590Z,60.02
2023-03-24T11:59:58.411Z,56.81
2023-03-24T12:02:35.076Z,54.21
2023-03-24T12:05:10.834Z,53.95
2023-03-24T12:08:22.891Z,63.99
2023-03-24T12:11:17.469Z,59.48
2023-03-24T12:13:50.337Z,62.75
2023-03-24T12:16:39.243Z,53.75
2023-03-24T12:19:13.243Z,53.29
2023-03-24T12:22:08.231Z,54.53
2023-03-24T12:24:53.501Z,56.90
2023-03-24T12:27:37.383Z,50.15
2023-03-24T12:30:25.876Z,51.42
2023-03-24T12:33:11.579Z,54.18
2023-03-24T12:36:15.460Z,55.04
2023-03-24T12:39:15.556Z,56.28
2023-03-24T12:42:09.548Z,56.88
2023-03-24T12:44:51.835Z,53.53
2023-03-24T12:47:50.996Z,57.86
2023-03-24T12:50:30.940Z,50.71
2023-03-24T12:53:36.832Z,60.28
2023-03-24T12:56:09.547Z,57.58
2023-03-24T12:58:48.199Z,56.60
2023-03-24T13:01:34.353Z,58.08
2023-03-24T13:04:29.552Z,56.87
2023-03-24T13:07:09.012Z,54.81
2023-03-24T13:10:00.248Z,50.49
2023-03-24T13:12:33.358Z,47.34
2023-03-24T13:15:23.992Z,48.91
2023-03-24T13:18:14.452Z,46.26
2023-03-24T13:20:46.510Z,45.46
2023-03-24T13:23:22.721Z,45.39
2023-03-24T13:26:07.934Z,45.09
2023-03-24T13:29:04.177Z,46.53
2023-03-24T13:31:44.377Z,42.59
2023-03-24T13:34:22.542Z,44.40
2023-03-24T13:36:55.846Z,43.81
2023-03-24T13:39:26.409Z,43.75
2023-03-24T13:41:56.917Z,42.69
2023-03-24T13:44:38.607Z,42.68
2023-03-24T13:47:12.972Z,44.38
2023-03-24T13:49:42.209Z,43.42
2023-03-24T13:52:38.057Z,45.27
2023-03-24T13:55:15.654Z,44.41
2023-03-24T13:57:51.662Z,43.68
2023-03-24T14:00:28.893Z,45.24
2023-03-24T14:03:06.167Z,44.76
2023-03-24T14:05:58.270Z,42.62
2023-03-24T14:08:53.976Z,46.71
2023-03-24T14:11:38.274Z,44.60
2023-03-24T14:14:18.307Z,45.73
2023-03-24T14:17:04.851Z,47.32
2023-03-24T14:19:39.302Z,45.60
2023-03-24T14:22:22.898Z,46.10
2023-03-24T14:25:02.796Z,48.30
2023-03-24T14:27:43.943Z,48.03
2023-03-24T14:30:11.004Z,42.07
2023-03-24T14:32:46.113Z,42.78
2023-03-24T14:35:24.089Z,48.38
2023-03-24T14:37:59.124Z,45.41
2023-03-24T14:40:30.136Z,46.72
2023-03-24T14:43:05.384Z,46.50
2023-03-24T14:45:55.490Z,47.37
2023-03-24T14:48:28.930Z,48.63
2023-03-24T14:51:01.522Z,47.89
2023-03-24T14:53:28.274Z,48.04
2023-03-24T14:55:55.859Z,50.68
2023-03-24T14:58:30.962Z,49.64
2023-03-24T15:01:07.049Z,50.29
2023-03-24T15:03:56.089Z,51.46
2023-03-24T15:06:24.084Z,49.67
2023-03-24T15:08:53.196Z,50.47
2023-03-24T15:11:24.444Z,48.62
2023-03-24T15:13:53.666Z,49.28
2023-03-24T15:16:32.487Z,48.20
2023-03-24T15:19:02.540Z,50.88
2023-03-24T15:21:32.697Z,48.12
2023-03-24T15:24:01.325Z,49.46
2023-03-24T15:26:31.030Z,53.68
2023-03-24T15:29:06.720Z,51.80
2023-03-24T15:31:33.815Z,54.53
2023-03-24T15:34:23.972Z,50.65
2023-03-24T15:37:32.714Z,54.50
2023-03-24T15:40:14.766Z,58.61
2023-03-24T15:42:45.005Z,57.32
2023-03-24T15:45:36.096Z,68.32
2023-03-24T15:48:08.100Z,68.84
2023-03-24T15:50:37.964Z,66.11
2023-03-24T15:53:39.628Z,70.49
2023-03-24T15:56:24.824Z,68.12
2023-03-24T15:58:54.682Z,67.75
2023-03-24T16:01:27.517Z,68.59
2023-03-24T16:03:55.305Z,68.77
2023-03-24T16:06:35.933Z,67.14
2023-03-24T16:09:11.102Z,67.05
2023-03-24T16:11:38.098Z,72.65
2023-03-24T16:14:32.805Z,61.36
2023-03-24T16:17:03.075Z,59.70
2023-03-24T16:19:30.410Z,62.22
2023-03-24T16:21:57.933Z,57.24
2023-03-24T16:24:24.922Z,61.86
2023-03-24T16:26:52.662Z,59.20
2023-03-24T16:29:22.571Z,59.03
2023-03-24T16:31:52.395Z,62.90
2023-03-24T16:34:22.400Z,57.91
2023-03-24T16:36:53.651Z,58.63
2023-03-24T16:39:23.814Z,61.63
2023-03-24T16:41:51.641Z,61.35
2023-03-24T16:44:19.669Z,54.58
2023-03-24T16:46:48.511Z,54.66
2023-03-24T16:49:17.990Z,55.82
2023-03-24T16:51:45.987Z,57.39
2023-03-24T16:54:13.127Z,61.47
2023-03-24T16:56:40.218Z,54.42
2023-03-24T16:59:09.138Z,59.18
2023-03-24T17:01:38.046Z,56.89
2023-03-24T17:04:13.674Z,54.30
2023-03-24T17:06:43.928Z,61.49
2023-03-24T17:09:12.720Z,56.20
2023-03-24T17:11:55.566Z,59.24
2023-03-24T17:14:23.355Z,56.21
2023-03-24T17:16:53.412Z,56.16
2023-03-24T17:19:23.052Z,57.63
2023-03-24T17:22:06.870Z,56.32
2023-03-24T17:24:36.201Z,58.11
2023-03-24T17:27:10.413Z,59.53
2023-03-24T17:29:38.934Z,62.88
2023-03-24T17:32:06.271Z,71.79
2023-03-24T17:34:34.070Z,68.75
2023-03-24T17:37:01.304Z,71.81
2023-03-24T17:39:27.985Z,72.31
2023-03-24T17:41:57.675Z,71.95
2023-03-24T17:44:24.396Z,67.08
2023-03-24T17:46:51.492Z,72.21
2023-03-24T17:49:19.094Z,72.58
2023-03-24T17:51:46.328Z,58.55
2023-03-24T17:54:13.809Z,56.00
2023-03-24T17:56:40.872Z,55.85
2023-03-24T17:59:08.803Z,54.85
2023-03-24T18:01:39.619Z,53.35
2023-03-24T18:04:07.392Z,54.57
2023-03-24T18:06:34.616Z,53.03
2023-03-24T18:09:01.667Z,65.20
2023-03-24T18:11:28.552Z,66.60
2023-03-24T18:13:55.907Z,56.40
2023-03-24T18:16:25.494Z,58.38
2023-03-24T18:18:52.848Z,52.35
2023-03-24T18:21:19.992Z,53.06
2023-03-24T18:23:47.263Z,53.39
2023-03-24T18:26:15.137Z,54.65
2023-03-24T18:28:42.837Z,50.77
2023-03-24T18:31:15.861Z,52.35
2023-03-24T18:33:46.005Z,52.23
2023-03-24T18:36:16.694Z,54.41
2023-03-24T18:38:44.221Z,52.27
2023-03-24T18:41:13.038Z,51.23
2023-03-24T18:43:41.196Z,52.13
2023-03-24T18:46:10.175Z,54.14
2023-03-24T18:48:38.680Z,48.91
2023-03-24T18:51:06.592Z,51.77
2023-03-24T18:53:34.821Z,51.88
2023-03-24T18:56:02.485Z,50.41
2023-03-24T18:58:29.712Z,49.71
2023-03-24T19:00:58.394Z,51.95
2023-03-24T19:03:27.265Z,49.95
2023-03-24T19:05:54.872Z,53.05
2023-03-24T19:08:23.364Z,50.90
2023-03-24T19:10:50.025Z,48.08
2023-03-24T19:13:17.313Z,54.93
2023-03-24T19:15:48.796Z,49.94
2023-03-24T19:18:15.749Z,51.80
2023-03-24T19:20:42.626Z,52.01
2023-03-24T19:23:09.852Z,50.84
2023-03-24T19:25:36.904Z,50.25
2023-03-24T19:28:04.160Z,51.73
2023-03-24T19:30:31.149Z,50.87
2023-03-24T19:32:58.077Z,53.38
2023-03-24T19:35:24.852Z,50.45
2023-03-24T19:37:51.984Z,51.04
2023-03-24T19:40:18.981Z,49.23
2023-03-24T19:42:46.692Z,50.25
2023-03-24T19:45:17.837Z,51.13
2023-03-24T19:47:48.019Z,50.09
2023-03-24T19:50:16.841Z,49.91
2023-03-24T19:52:46.009Z,49.62
2023-03-24T19:55:13.568Z,49.84
2023-03-24T19:57:41.023Z,53.19
2023-03-24T20:00:11.780Z,59.41
2023-03-24T20:02:39.033Z,62.30
2023-03-24T20:05:08.651Z,59.74
2023-03-24T20:07:35.666Z,62.06
2023-03-24T20:10:02.415Z,63.08
2023-03-24T20:12:29.923Z,59.75
2023-03-24T20:14:57.302Z,66.37
2023-03-24T20:17:29.643Z,61.23
2023-03-24T20:19:56.915Z,55.69
2023-03-24T20:22:24.144Z,57.84
2023-03-24T20:24:50.923Z,57.06
2023-03-24T20:27:17.725Z,65.46
2023-03-24T20:29:46.264Z,56.96
2023-03-24T20:32:13.365Z,58.82
2023-03-24T20:34:41.004Z,56.55
2023-03-24T20:37:09.110Z,61.00
2023-03-24T20:39:35.824Z,60.06
2023-03-24T20:42:02.906Z,60.76
2023-03-24T20:44:30.048Z,59.59
2023-03-24T20:46:57.432Z,62.38
2023-03-24T20:49:25.963Z,60.96
2023-03-24T20:51:53.484Z,64.76
2023-03-24T20:54:21.418Z,54.75
2023-03-24T20:56:49.917Z,54.56
2023-03-24T20:59:17.300Z,58.84
2023-03-24T21:01:44.104Z,57.41
2023-03-24T21:04:11.196Z,56.81
2023-03-24T21:06:38.629Z,57.64
2023-03-24T21:09:05.968Z,61.31
2023-03-24T21:11:33.163Z,63.10
2023-03-24T21:14:01.278Z,61.98
2023-03-24T21:16:28.753Z,58.75
2023-03-24T21:18:58.004Z,58.67
2023-03-24T21:21:25.917Z,58.44
2023-03-24T21:23:54.761Z,61.63
2023-03-24T21:26:21.508Z,62.57
2023-03-24T21:28:48.634Z,58.23
2023-03-24T21:31:20.088Z,58.53
2023-03-24T21:33:47.651Z,60.70
2023-03-24T21:36:14.623Z,60.29
2023-03-24T21:38:42.969Z,60.15
2023-03-24T21:41:11.013Z,60.52
2023-03-24T21:43:40.534Z,58.97
2023-03-24T21:46:20.521Z,59.38
2023-03-24T21:48:59.622Z,57.06
2023-03-24T21:51:35.432Z,58.56
2023-03-24T21:54:04.501Z,55.89
2023-03-24T21:56:33.356Z,56.83
2023-03-24T21:59:00.471Z,57.94
2023-03-24T22:01:27.400Z,57.46
2023-03-24T22:03:59.119Z,59.72
2023-03-24T22:06:29.412Z,60.10
2023-03-24T22:09:06.624Z,56.22
2023-03-24T22:11:36.023Z,59.43
2023-03-24T22:14:03.837Z,55.09
2023-03-24T22:16:33.026Z,59.68
2023-03-24T22:19:01.606Z,55.72
2023-03-24T22:21:28.732Z,56.55
2023-03-24T22:23:56.522Z,54.55
2023-03-24T22:26:23.218Z,55.57
2023-03-24T22:28:51.053Z,58.79
2023-03-24T22:31:18.072Z,56.34
2023-03-24T22:33:45.278Z,59.48
2023-03-24T22:36:12.579Z,55.79
2023-03-24T22:38:39.930Z,57.67
2023-03-24T22:41:11.856Z,55.15
2023-03-24T22:43:42.061Z,54.30
2023-03-24T22:46:12.867Z,55.17
2023-03-24T22:48:40.986Z,54.60
2023-03-24T22:51:08.861Z,58.25
2023-03-24T22:53:36.166Z,57.92
2023-03-24T22:56:06.088Z,55.21
2023-03-24T22:58:33.041Z,54.97
2023-03-24T23:00:59.768Z,56.45
2023-03-24T23:03:27.087Z,55.66
2023-03-24T23:05:53.864Z,54.45
2023-03-24T23:08:20.988Z,52.50
2023-03-24T23:10:48.321Z,54.53
2023-03-24T23:13:17.051Z,53.20
2023-03-24T23:15:44.476Z,53.88
2023-03-24T23:18:12.314Z,50.01
2023-03-24T23:20:39.885Z,52.47
2023-03-24T23:23:07.700Z,52.41
2023-03-24T23:25:40.344Z,53.47
2023-03-24T23:28:07.871Z,56.88
2023-03-24T23:30:34.984Z,59.12
2023-03-24T23:33:04.137Z,54.26
2023-03-24T23:35:33.133Z,52.39
2023-03-24T23:37:59.902Z,56.92
2023-03-24T23:40:27.167Z,55.19
2023-03-24T23:42:53.870Z,54.12
2023-03-24T23:45:20.974Z,55.12
2023-03-24T23:47:50.320Z,53.13
2023-03-24T23:50:18.616Z,53.48
2023-03-24T23:52:45.710Z,55.78
2023-03-24T23:55:14.507Z,56.82
2023-03-24T23:57:42.663Z,55.87
